Montreal-Est, Canada
Current Conditions -  °F | °C
As of 5:00 AM on Wednesday 26 Nov 2014 (Local Time) from CYHU Reporting Station
Broken Clouds Broken Clouds  
Wind Chill: 24°   Ceiling: 24000
Heat Index: 32°   Visibility: 9mi
Dew Point: 19°   Wind: 9mph
Humidity: 60%   Direction: 280°W
Pressure: 30.21"   Gusts: NA
Location:  45.63°N, 73.52°W
Report Text: CYHU 261000Z AUTO 28008KT 9SM BKN240 00/M07 A3021 RMK SLP230
Loading
Personal Weather Stations






























Interactive Weather Map New forecast layout! Learn more

10-Day Weather Forecast

Advertisements
Track Severe Weather on mobile